sensor_id;sensor_type;location;lat;lon;timestamp;P1;durP1;ratioP1;P2;durP2;ratioP2
17141;SDS011;32805;53.556;9.944;2023-11-19T00:00:35;11.68;;;7.40;;
17141;SDS011;32805;53.556;9.944;2023-11-19T00:03:02;10.07;;;7.60;;
17141;SDS011;32805;53.556;9.944;2023-11-19T00:05:32;8.73;;;7.15;;
17141;SDS011;32805;53.556;9.944;2023-11-19T00:07:59;10.25;;;7.20;;
17141;SDS011;32805;53.556;9.944;2023-11-19T00:10:28;12.57;;;7.47;;
17141;SDS011;32805;53.556;9.944;2023-11-19T00:12:56;8.27;;;6.57;;
17141;SDS011;32805;53.556;9.944;2023-11-19T00:15:24;7.93;;;5.88;;
17141;SDS011;32805;53.556;9.944;2023-11-19T00:17:52;10.63;;;7.03;;
17141;SDS011;32805;53.556;9.944;2023-11-19T00:20:19;6.93;;;6.22;;
17141;SDS011;32805;53.556;9.944;2023-11-19T00:22:49;8.48;;;6.45;;
17141;SDS011;32805;53.556;9.944;2023-11-19T00:25:19;7.90;;;5.40;;
17141;SDS011;32805;53.556;9.944;2023-11-19T00:27:47;8.70;;;6.13;;
17141;SDS011;32805;53.556;9.944;2023-11-19T00:30:15;8.45;;;6.13;;
17141;SDS011;32805;53.556;9.944;2023-11-19T00:32:43;7.55;;;5.30;;
17141;SDS011;32805;53.556;9.944;2023-11-19T00:35:11;7.45;;;5.40;;
17141;SDS011;32805;53.556;9.944;2023-11-19T00:37:40;7.63;;;6.00;;
17141;SDS011;32805;53.556;9.944;2023-11-19T00:40:10;6.32;;;5.15;;
17141;SDS011;32805;53.556;9.944;2023-11-19T00:42:38;6.18;;;5.15;;
17141;SDS011;32805;53.556;9.944;2023-11-19T00:45:06;5.55;;;5.00;;
17141;SDS011;32805;53.556;9.944;2023-11-19T00:47:36;7.07;;;4.90;;
17141;SDS011;32805;53.556;9.944;2023-11-19T00:50:04;7.75;;;5.45;;
17141;SDS011;32805;53.556;9.944;2023-11-19T00:52:32;5.55;;;4.65;;
17141;SDS011;32805;53.556;9.944;2023-11-19T00:54:59;6.88;;;5.30;;
17141;SDS011;32805;53.556;9.944;2023-11-19T00:57:28;6.28;;;4.63;;
17141;SDS011;32805;53.556;9.944;2023-11-19T00:59:56;5.38;;;4.32;;
17141;SDS011;32805;53.556;9.944;2023-11-19T01:02:24;5.70;;;4.68;;
17141;SDS011;32805;53.556;9.944;2023-11-19T01:04:51;4.60;;;3.97;;
17141;SDS011;32805;53.556;9.944;2023-11-19T01:07:19;5.25;;;4.22;;
17141;SDS011;32805;53.556;9.944;2023-11-19T01:09:48;6.13;;;3.90;;
17141;SDS011;32805;53.556;9.944;2023-11-19T01:12:15;4.07;;;3.65;;
17141;SDS011;32805;53.556;9.944;2023-11-19T01:14:44;5.03;;;4.05;;
17141;SDS011;32805;53.556;9.944;2023-11-19T01:17:11;5.13;;;3.70;;
17141;SDS011;32805;53.556;9.944;2023-11-19T01:19:39;4.10;;;3.45;;
17141;SDS011;32805;53.556;9.944;2023-11-19T01:22:06;4.13;;;3.65;;
17141;SDS011;32805;53.556;9.944;2023-11-19T01:24:34;3.50;;;3.00;;
17141;SDS011;32805;53.556;9.944;2023-11-19T01:27:01;3.85;;;3.17;;
17141;SDS011;32805;53.556;9.944;2023-11-19T01:29:29;4.45;;;3.40;;
17141;SDS011;32805;53.556;9.944;2023-11-19T01:31:58;3.70;;;3.40;;
17141;SDS011;32805;53.556;9.944;2023-11-19T01:34:25;2.90;;;2.67;;
17141;SDS011;32805;53.556;9.944;2023-11-19T01:36:53;3.33;;;3.03;;
17141;SDS011;32805;53.556;9.944;2023-11-19T01:39:20;3.83;;;3.17;;
17141;SDS011;32805;53.556;9.944;2023-11-19T01:41:48;3.25;;;2.95;;
17141;SDS011;32805;53.556;9.944;2023-11-19T01:44:16;3.78;;;2.78;;
17141;SDS011;32805;53.556;9.944;2023-11-19T01:46:44;3.22;;;2.92;;
17141;SDS011;32805;53.556;9.944;2023-11-19T01:49:15;2.83;;;2.58;;
17141;SDS011;32805;53.556;9.944;2023-11-19T01:51:43;8.45;;;3.42;;
17141;SDS011;32805;53.556;9.944;2023-11-19T01:54:10;3.03;;;2.45;;
17141;SDS011;32805;53.556;9.944;2023-11-19T01:56:38;2.85;;;2.25;;
17141;SDS011;32805;53.556;9.944;2023-11-19T01:59:08;3.38;;;2.35;;
17141;SDS011;32805;53.556;9.944;2023-11-19T02:01:36;2.33;;;1.92;;
17141;SDS011;32805;53.556;9.944;2023-11-19T02:04:06;2.17;;;1.98;;
17141;SDS011;32805;53.556;9.944;2023-11-19T02:06:36;2.35;;;2.15;;
17141;SDS011;32805;53.556;9.944;2023-11-19T02:09:05;2.47;;;1.95;;
17141;SDS011;32805;53.556;9.944;2023-11-19T02:11:34;3.13;;;1.95;;
17141;SDS011;32805;53.556;9.944;2023-11-19T02:14:01;2.72;;;2.22;;
17141;SDS011;32805;53.556;9.944;2023-11-19T02:16:30;1.80;;;1.42;;
17141;SDS011;32805;53.556;9.944;2023-11-19T02:18:58;3.22;;;1.85;;
17141;SDS011;32805;53.556;9.944;2023-11-19T02:21:25;1.98;;;1.80;;
17141;SDS011;32805;53.556;9.944;2023-11-19T02:23:54;2.28;;;1.85;;
17141;SDS011;32805;53.556;9.944;2023-11-19T02:26:37;2.50;;;2.00;;
17141;SDS011;32805;53.556;9.944;2023-11-19T02:29:07;1.70;;;1.60;;
17141;SDS011;32805;53.556;9.944;2023-11-19T02:31:35;1.50;;;1.40;;
17141;SDS011;32805;53.556;9.944;2023-11-19T02:34:02;1.70;;;1.60;;
17141;SDS011;32805;53.556;9.944;2023-11-19T02:36:30;1.88;;;1.75;;
17141;SDS011;32805;53.556;9.944;2023-11-19T02:38:58;1.77;;;1.50;;
17141;SDS011;32805;53.556;9.944;2023-11-19T02:41:26;1.83;;;1.67;;
17141;SDS011;32805;53.556;9.944;2023-11-19T02:43:53;1.90;;;1.70;;
17141;SDS011;32805;53.556;9.944;2023-11-19T02:46:22;1.45;;;1.35;;
17141;SDS011;32805;53.556;9.944;2023-11-19T02:48:49;1.80;;;1.63;;
17141;SDS011;32805;53.556;9.944;2023-11-19T02:51:18;1.58;;;1.48;;
17141;SDS011;32805;53.556;9.944;2023-11-19T02:53:45;2.03;;;1.83;;
17141;SDS011;32805;53.556;9.944;2023-11-19T02:56:14;2.50;;;1.90;;
17141;SDS011;32805;53.556;9.944;2023-11-19T02:58:46;2.08;;;1.63;;
17141;SDS011;32805;53.556;9.944;2023-11-19T03:01:22;2.25;;;2.00;;
17141;SDS011;32805;53.556;9.944;2023-11-19T03:03:56;1.92;;;1.80;;
17141;SDS011;32805;53.556;9.944;2023-11-19T03:06:25;1.85;;;1.75;;
17141;SDS011;32805;53.556;9.944;2023-11-19T03:08:54;2.25;;;2.05;;
17141;SDS011;32805;53.556;9.944;2023-11-19T03:11:21;2.10;;;1.90;;
17141;SDS011;32805;53.556;9.944;2023-11-19T03:13:49;3.10;;;1.98;;
17141;SDS011;32805;53.556;9.944;2023-11-19T03:16:16;2.20;;;2.00;;
17141;SDS011;32805;53.556;9.944;2023-11-19T03:18:45;1.77;;;1.67;;
17141;SDS011;32805;53.556;9.944;2023-11-19T03:21:13;2.95;;;1.70;;
17141;SDS011;32805;53.556;9.944;2023-11-19T03:23:40;2.25;;;2.05;;
17141;SDS011;32805;53.556;9.944;2023-11-19T03:26:10;1.90;;;1.80;;
17141;SDS011;32805;53.556;9.944;2023-11-19T03:28:38;2.00;;;1.90;;
17141;SDS011;32805;53.556;9.944;2023-11-19T03:31:05;2.40;;;2.20;;
17141;SDS011;32805;53.556;9.944;2023-11-19T03:33:34;2.33;;;2.13;;
17141;SDS011;32805;53.556;9.944;2023-11-19T03:36:04;2.50;;;2.30;;
17141;SDS011;32805;53.556;9.944;2023-11-19T03:38:32;2.40;;;2.20;;
17141;SDS011;32805;53.556;9.944;2023-11-19T03:40:59;2.50;;;2.30;;
17141;SDS011;32805;53.556;9.944;2023-11-19T03:43:27;4.72;;;2.58;;
17141;SDS011;32805;53.556;9.944;2023-11-19T03:45:54;2.40;;;2.20;;
17141;SDS011;32805;53.556;9.944;2023-11-19T03:48:22;3.00;;;2.58;;
17141;SDS011;32805;53.556;9.944;2023-11-19T03:50:49;2.53;;;2.30;;
17141;SDS011;32805;53.556;9.944;2023-11-19T03:53:18;2.75;;;2.55;;
17141;SDS011;32805;53.556;9.944;2023-11-19T03:55:46;2.75;;;2.45;;
17141;SDS011;32805;53.556;9.944;2023-11-19T03:58:13;3.92;;;2.10;;
17141;SDS011;32805;53.556;9.944;2023-11-19T04:00:41;3.03;;;2.72;;
17141;SDS011;32805;53.556;9.944;2023-11-19T04:03:08;3.03;;;2.75;;
17141;SDS011;32805;53.556;9.944;2023-11-19T04:05:36;2.88;;;2.60;;
17141;SDS011;32805;53.556;9.944;2023-11-19T04:08:03;4.70;;;3.20;;
17141;SDS011;32805;53.556;9.944;2023-11-19T04:10:33;3.42;;;3.13;;
17141;SDS011;32805;53.556;9.944;2023-11-19T04:13:00;3.28;;;2.97;;
17141;SDS011;32805;53.556;9.944;2023-11-19T04:15:28;3.35;;;2.90;;
17141;SDS011;32805;53.556;9.944;2023-11-19T04:17:55;4.03;;;3.25;;
17141;SDS011;32805;53.556;9.944;2023-11-19T04:20:23;6.30;;;3.50;;
17141;SDS011;32805;53.556;9.944;2023-11-19T04:22:50;3.10;;;2.85;;
17141;SDS011;32805;53.556;9.944;2023-11-19T04:25:18;3.90;;;3.40;;
17141;SDS011;32805;53.556;9.944;2023-11-19T04:27:47;3.88;;;3.47;;
17141;SDS011;32805;53.556;9.944;2023-11-19T04:30:15;3.75;;;3.42;;
17141;SDS011;32805;53.556;9.944;2023-11-19T04:32:42;5.07;;;4.57;;
17141;SDS011;32805;53.556;9.944;2023-11-19T04:35:10;5.10;;;4.22;;
17141;SDS011;32805;53.556;9.944;2023-11-19T04:37:37;4.93;;;4.10;;
17141;SDS011;32805;53.556;9.944;2023-11-19T04:40:05;4.40;;;4.00;;
17141;SDS011;32805;53.556;9.944;2023-11-19T04:42:33;5.95;;;4.70;;
17141;SDS011;32805;53.556;9.944;2023-11-19T04:45:02;6.72;;;4.30;;
17141;SDS011;32805;53.556;9.944;2023-11-19T04:47:32;5.97;;;4.60;;
17141;SDS011;32805;53.556;9.944;2023-11-19T04:50:00;4.93;;;4.43;;
17141;SDS011;32805;53.556;9.944;2023-11-19T04:52:28;5.15;;;4.20;;
17141;SDS011;32805;53.556;9.944;2023-11-19T04:54:55;4.88;;;4.38;;
17141;SDS011;32805;53.556;9.944;2023-11-19T04:57:23;5.18;;;4.68;;
17141;SDS011;32805;53.556;9.944;2023-11-19T04:59:50;5.07;;;4.20;;
17141;SDS011;32805;53.556;9.944;2023-11-19T05:02:19;6.13;;;4.47;;
17141;SDS011;32805;53.556;9.944;2023-11-19T05:04:46;5.82;;;5.00;;
17141;SDS011;32805;53.556;9.944;2023-11-19T05:07:15;7.53;;;5.15;;
17141;SDS011;32805;53.556;9.944;2023-11-19T05:09:43;7.95;;;6.35;;
17141;SDS011;32805;53.556;9.944;2023-11-19T05:12:10;8.52;;;6.05;;
17141;SDS011;32805;53.556;9.944;2023-11-19T05:14:38;8.05;;;6.03;;
17141;SDS011;32805;53.556;9.944;2023-11-19T05:17:06;9.57;;;7.65;;
17141;SDS011;32805;53.556;9.944;2023-11-19T05:19:35;11.43;;;7.55;;
17141;SDS011;32805;53.556;9.944;2023-11-19T05:22:03;9.88;;;6.68;;
17141;SDS011;32805;53.556;9.944;2023-11-19T05:24:31;13.65;;;9.85;;
17141;SDS011;32805;53.556;9.944;2023-11-19T05:26:58;15.80;;;9.75;;
17141;SDS011;32805;53.556;9.944;2023-11-19T05:29:25;16.50;;;9.80;;
17141;SDS011;32805;53.556;9.944;2023-11-19T05:31:53;15.98;;;11.23;;
17141;SDS011;32805;53.556;9.944;2023-11-19T05:34:21;24.77;;;12.13;;
17141;SDS011;32805;53.556;9.944;2023-11-19T05:36:50;15.65;;;10.57;;
17141;SDS011;32805;53.556;9.944;2023-11-19T05:39:17;19.77;;;12.18;;
17141;SDS011;32805;53.556;9.944;2023-11-19T05:41:46;19.60;;;12.52;;
17141;SDS011;32805;53.556;9.944;2023-11-19T05:44:13;21.08;;;12.43;;
17141;SDS011;32805;53.556;9.944;2023-11-19T05:46:41;25.40;;;14.80;;
17141;SDS011;32805;53.556;9.944;2023-11-19T05:49:10;23.70;;;13.05;;
17141;SDS011;32805;53.556;9.944;2023-11-19T05:51:37;25.17;;;14.85;;
17141;SDS011;32805;53.556;9.944;2023-11-19T05:54:07;23.90;;;13.30;;
17141;SDS011;32805;53.556;9.944;2023-11-19T05:56:35;25.95;;;14.07;;
17141;SDS011;32805;53.556;9.944;2023-11-19T05:59:03;28.45;;;14.43;;
17141;SDS011;32805;53.556;9.944;2023-11-19T06:01:33;29.02;;;16.60;;
17141;SDS011;32805;53.556;9.944;2023-11-19T06:04:01;22.50;;;14.75;;
17141;SDS011;32805;53.556;9.944;2023-11-19T06:06:29;30.83;;;15.45;;
17141;SDS011;32805;53.556;9.944;2023-11-19T06:08:57;26.48;;;14.48;;
17141;SDS011;32805;53.556;9.944;2023-11-19T06:11:39;29.70;;;15.20;;
17141;SDS011;32805;53.556;9.944;2023-11-19T06:14:06;23.33;;;12.82;;
17141;SDS011;32805;53.556;9.944;2023-11-19T06:16:34;32.33;;;13.98;;
17141;SDS011;32805;53.556;9.944;2023-11-19T06:19:03;28.30;;;13.63;;
17141;SDS011;32805;53.556;9.944;2023-11-19T06:21:31;24.02;;;13.10;;
17141;SDS011;32805;53.556;9.944;2023-11-19T06:23:58;24.10;;;12.85;;
17141;SDS011;32805;53.556;9.944;2023-11-19T06:26:25;26.02;;;13.23;;
17141;SDS011;32805;53.556;9.944;2023-11-19T06:28:55;25.88;;;12.70;;
17141;SDS011;32805;53.556;9.944;2023-11-19T06:31:22;29.92;;;13.27;;
17141;SDS011;32805;53.556;9.944;2023-11-19T06:33:50;23.25;;;12.32;;
17141;SDS011;32805;53.556;9.944;2023-11-19T06:36:17;27.77;;;12.73;;
17141;SDS011;32805;53.556;9.944;2023-11-19T06:38:45;27.08;;;12.20;;
17141;SDS011;32805;53.556;9.944;2023-11-19T06:41:12;25.23;;;11.23;;
17141;SDS011;32805;53.556;9.944;2023-11-19T06:43:40;25.45;;;12.23;;
17141;SDS011;32805;53.556;9.944;2023-11-19T06:46:15;30.00;;;12.57;;
17141;SDS011;32805;53.556;9.944;2023-11-19T06:48:43;26.20;;;10.63;;
17141;SDS011;32805;53.556;9.944;2023-11-19T06:51:11;20.65;;;10.55;;
17141;SDS011;32805;53.556;9.944;2023-11-19T06:53:38;24.15;;;10.93;;
17141;SDS011;32805;53.556;9.944;2023-11-19T06:56:16;28.65;;;10.02;;
17141;SDS011;32805;53.556;9.944;2023-11-19T06:58:44;26.45;;;10.35;;
17141;SDS011;32805;53.556;9.944;2023-11-19T07:01:11;22.50;;;10.07;;
17141;SDS011;32805;53.556;9.944;2023-11-19T07:03:40;21.77;;;8.57;;
17141;SDS011;32805;53.556;9.944;2023-11-19T07:06:08;27.55;;;9.63;;
17141;SDS011;32805;53.556;9.944;2023-11-19T07:08:35;26.80;;;8.80;;
17141;SDS011;32805;53.556;9.944;2023-11-19T07:11:03;25.65;;;9.07;;
17141;SDS011;32805;53.556;9.944;2023-11-19T07:13:30;19.85;;;8.68;;
17141;SDS011;32805;53.556;9.944;2023-11-19T07:15:58;22.85;;;8.43;;
17141;SDS011;32805;53.556;9.944;2023-11-19T07:18:25;31.35;;;8.25;;
17141;SDS011;32805;53.556;9.944;2023-11-19T07:20:54;22.52;;;7.65;;
17141;SDS011;32805;53.556;9.944;2023-11-19T07:23:21;17.35;;;7.32;;
17141;SDS011;32805;53.556;9.944;2023-11-19T07:25:49;20.02;;;7.40;;
17141;SDS011;32805;53.556;9.944;2023-11-19T07:28:19;18.20;;;6.63;;
17141;SDS011;32805;53.556;9.944;2023-11-19T07:30:47;21.88;;;6.55;;
17141;SDS011;32805;53.556;9.944;2023-11-19T07:33:14;20.15;;;6.40;;
17141;SDS011;32805;53.556;9.944;2023-11-19T07:35:42;24.70;;;6.28;;
17141;SDS011;32805;53.556;9.944;2023-11-19T07:38:11;17.05;;;6.07;;
17141;SDS011;32805;53.556;9.944;2023-11-19T07:40:39;23.13;;;5.38;;
17141;SDS011;32805;53.556;9.944;2023-11-19T07:43:06;19.23;;;6.03;;
17141;SDS011;32805;53.556;9.944;2023-11-19T07:45:34;25.08;;;6.40;;
17141;SDS011;32805;53.556;9.944;2023-11-19T07:48:01;23.33;;;6.60;;
17141;SDS011;32805;53.556;9.944;2023-11-19T07:50:29;20.05;;;5.20;;
17141;SDS011;32805;53.556;9.944;2023-11-19T07:52:58;25.20;;;7.20;;
17141;SDS011;32805;53.556;9.944;2023-11-19T07:55:26;22.27;;;5.53;;
17141;SDS011;32805;53.556;9.944;2023-11-19T07:57:55;23.55;;;6.00;;
17141;SDS011;32805;53.556;9.944;2023-11-19T08:00:23;23.65;;;6.38;;
17141;SDS011;32805;53.556;9.944;2023-11-19T08:02:50;17.30;;;5.00;;
17141;SDS011;32805;53.556;9.944;2023-11-19T08:05:18;30.45;;;5.75;;
17141;SDS011;32805;53.556;9.944;2023-11-19T08:07:45;29.73;;;6.25;;
17141;SDS011;32805;53.556;9.944;2023-11-19T08:10:13;23.00;;;5.53;;
17141;SDS011;32805;53.556;9.944;2023-11-19T08:12:42;22.48;;;5.35;;
17141;SDS011;32805;53.556;9.944;2023-11-19T08:15:10;27.15;;;6.07;;
17141;SDS011;32805;53.556;9.944;2023-11-19T08:17:39;28.90;;;5.90;;
17141;SDS011;32805;53.556;9.944;2023-11-19T08:20:07;26.83;;;6.47;;
17141;SDS011;32805;53.556;9.944;2023-11-19T08:22:37;38.65;;;7.45;;
17141;SDS011;32805;53.556;9.944;2023-11-19T08:25:04;20.60;;;5.88;;
17141;SDS011;32805;53.556;9.944;2023-11-19T08:27:32;30.73;;;7.88;;
17141;SDS011;32805;53.556;9.944;2023-11-19T08:30:00;21.85;;;6.13;;
17141;SDS011;32805;53.556;9.944;2023-11-19T08:32:28;32.40;;;6.75;;
17141;SDS011;32805;53.556;9.944;2023-11-19T08:34:55;25.55;;;5.55;;
17141;SDS011;32805;53.556;9.944;2023-11-19T08:37:23;25.95;;;5.25;;
17141;SDS011;32805;53.556;9.944;2023-11-19T08:39:52;20.35;;;4.10;;
17141;SDS011;32805;53.556;9.944;2023-11-19T08:42:20;29.50;;;4.70;;
17141;SDS011;32805;53.556;9.944;2023-11-19T08:44:48;26.45;;;5.20;;
17141;SDS011;32805;53.556;9.944;2023-11-19T08:47:18;25.42;;;4.35;;
17141;SDS011;32805;53.556;9.944;2023-11-19T08:49:45;25.90;;;4.60;;
17141;SDS011;32805;53.556;9.944;2023-11-19T08:52:29;20.17;;;4.40;;
17141;SDS011;32805;53.556;9.944;2023-11-19T08:55:00;28.90;;;6.03;;
17141;SDS011;32805;53.556;9.944;2023-11-19T08:57:28;23.75;;;6.30;;
17141;SDS011;32805;53.556;9.944;2023-11-19T08:59:55;30.83;;;4.93;;
17141;SDS011;32805;53.556;9.944;2023-11-19T09:02:24;22.80;;;5.18;;
17141;SDS011;32805;53.556;9.944;2023-11-19T09:04:51;23.10;;;4.85;;
17141;SDS011;32805;53.556;9.944;2023-11-19T09:07:20;33.00;;;6.22;;
17141;SDS011;32805;53.556;9.944;2023-11-19T09:09:47;25.52;;;4.65;;
17141;SDS011;32805;53.556;9.944;2023-11-19T09:12:15;29.27;;;5.47;;
17141;SDS011;32805;53.556;9.944;2023-11-19T09:14:42;23.80;;;5.40;;
17141;SDS011;32805;53.556;9.944;2023-11-19T09:17:10;26.92;;;5.40;;
17141;SDS011;32805;53.556;9.944;2023-11-19T09:19:39;27.75;;;5.68;;
17141;SDS011;32805;53.556;9.944;2023-11-19T09:22:06;21.30;;;4.97;;
17141;SDS011;32805;53.556;9.944;2023-11-19T09:24:34;28.05;;;5.50;;
17141;SDS011;32805;53.556;9.944;2023-11-19T09:27:01;23.45;;;4.70;;
17141;SDS011;32805;53.556;9.944;2023-11-19T09:29:31;23.33;;;4.57;;
17141;SDS011;32805;53.556;9.944;2023-11-19T09:31:58;22.23;;;4.93;;
17141;SDS011;32805;53.556;9.944;2023-11-19T09:34:26;28.35;;;5.40;;
17141;SDS011;32805;53.556;9.944;2023-11-19T09:36:55;24.40;;;5.00;;
17141;SDS011;32805;53.556;9.944;2023-11-19T09:39:23;26.83;;;5.40;;
17141;SDS011;32805;53.556;9.944;2023-11-19T09:41:51;30.08;;;6.00;;
17141;SDS011;32805;53.556;9.944;2023-11-19T09:44:19;25.75;;;4.50;;
17141;SDS011;32805;53.556;9.944;2023-11-19T09:46:47;22.00;;;4.45;;
17141;SDS011;32805;53.556;9.944;2023-11-19T09:49:15;24.60;;;5.75;;
17141;SDS011;32805;53.556;9.944;2023-11-19T09:51:43;23.60;;;5.18;;
17141;SDS011;32805;53.556;9.944;2023-11-19T09:54:12;27.02;;;5.40;;
17141;SDS011;32805;53.556;9.944;2023-11-19T09:56:40;27.77;;;6.07;;
17141;SDS011;32805;53.556;9.944;2023-11-19T09:59:08;31.10;;;5.65;;
17141;SDS011;32805;53.556;9.944;2023-11-19T10:01:37;28.83;;;6.00;;
17141;SDS011;32805;53.556;9.944;2023-11-19T10:04:05;37.58;;;5.10;;
17141;SDS011;32805;53.556;9.944;2023-11-19T10:06:33;23.42;;;4.55;;
17141;SDS011;32805;53.556;9.944;2023-11-19T10:09:01;20.98;;;4.85;;
17141;SDS011;32805;53.556;9.944;2023-11-19T10:11:32;29.02;;;4.95;;
17141;SDS011;32805;53.556;9.944;2023-11-19T10:13:59;29.67;;;5.28;;
17141;SDS011;32805;53.556;9.944;2023-11-19T10:16:28;25.83;;;4.88;;
17141;SDS011;32805;53.556;9.944;2023-11-19T10:18:55;30.02;;;6.40;;
17141;SDS011;32805;53.556;9.944;2023-11-19T10:21:23;20.92;;;5.22;;
17141;SDS011;32805;53.556;9.944;2023-11-19T10:23:51;25.13;;;5.65;;
17141;SDS011;32805;53.556;9.944;2023-11-19T10:26:19;27.77;;;5.55;;
17141;SDS011;32805;53.556;9.944;2023-11-19T10:28:48;28.95;;;5.47;;
17141;SDS011;32805;53.556;9.944;2023-11-19T10:31:16;26.60;;;4.70;;
17141;SDS011;32805;53.556;9.944;2023-11-19T10:33:44;23.35;;;4.82;;
17141;SDS011;32805;53.556;9.944;2023-11-19T10:36:12;22.42;;;4.28;;
17141;SDS011;32805;53.556;9.944;2023-11-19T10:38:40;23.83;;;4.68;;
17141;SDS011;32805;53.556;9.944;2023-11-19T10:41:08;24.33;;;5.13;;
17141;SDS011;32805;53.556;9.944;2023-11-19T10:43:44;24.40;;;4.22;;
17141;SDS011;32805;53.556;9.944;2023-11-19T10:46:13;25.15;;;4.85;;
17141;SDS011;32805;53.556;9.944;2023-11-19T10:48:47;25.25;;;5.30;;
17141;SDS011;32805;53.556;9.944;2023-11-19T10:51:17;27.98;;;4.70;;
17141;SDS011;32805;53.556;9.944;2023-11-19T10:53:47;25.23;;;4.50;;
17141;SDS011;32805;53.556;9.944;2023-11-19T10:56:17;29.90;;;6.22;;
17141;SDS011;32805;53.556;9.944;2023-11-19T10:58:47;27.20;;;4.82;;
17141;SDS011;32805;53.556;9.944;2023-11-19T11:01:19;27.02;;;4.63;;
17141;SDS011;32805;53.556;9.944;2023-11-19T11:03:47;28.25;;;4.90;;
17141;SDS011;32805;53.556;9.944;2023-11-19T11:06:17;27.60;;;5.38;;
17141;SDS011;32805;53.556;9.944;2023-11-19T11:08:45;27.48;;;5.05;;
17141;SDS011;32805;53.556;9.944;2023-11-19T11:11:13;31.17;;;5.65;;
17141;SDS011;32805;53.556;9.944;2023-11-19T11:13:43;23.75;;;5.93;;
17141;SDS011;32805;53.556;9.944;2023-11-19T11:16:11;28.92;;;5.03;;
17141;SDS011;32805;53.556;9.944;2023-11-19T11:18:41;22.83;;;4.82;;
17141;SDS011;32805;53.556;9.944;2023-11-19T11:21:09;37.80;;;8.38;;
17141;SDS011;32805;53.556;9.944;2023-11-19T11:23:54;29.77;;;6.47;;
17141;SDS011;32805;53.556;9.944;2023-11-19T11:26:31;25.15;;;5.50;;
17141;SDS011;32805;53.556;9.944;2023-11-19T11:29:02;22.75;;;6.00;;
17141;SDS011;32805;53.556;9.944;2023-11-19T11:31:34;27.40;;;6.00;;
17141;SDS011;32805;53.556;9.944;2023-11-19T11:34:09;28.30;;;5.88;;
17141;SDS011;32805;53.556;9.944;2023-11-19T11:36:42;22.40;;;4.65;;
17141;SDS011;32805;53.556;9.944;2023-11-19T11:39:13;30.65;;;5.68;;
17141;SDS011;32805;53.556;9.944;2023-11-19T11:41:41;26.95;;;4.43;;
17141;SDS011;32805;53.556;9.944;2023-11-19T11:44:09;27.77;;;5.47;;
17141;SDS011;32805;53.556;9.944;2023-11-19T11:46:55;25.60;;;4.70;;
17141;SDS011;32805;53.556;9.944;2023-11-19T11:49:27;30.80;;;6.63;;
17141;SDS011;32805;53.556;9.944;2023-11-19T11:52:02;26.00;;;7.45;;
17141;SDS011;32805;53.556;9.944;2023-11-19T11:54:33;21.85;;;5.35;;
17141;SDS011;32805;53.556;9.944;2023-11-19T11:57:11;23.88;;;4.47;;
17141;SDS011;32805;53.556;9.944;2023-11-19T11:59:47;33.15;;;6.72;;
17141;SDS011;32805;53.556;9.944;2023-11-19T12:02:15;30.00;;;4.85;;
17141;SDS011;32805;53.556;9.944;2023-11-19T12:04:47;24.83;;;5.28;;
17141;SDS011;32805;53.556;9.944;2023-11-19T12:07:16;30.58;;;5.78;;
17141;SDS011;32805;53.556;9.944;2023-11-19T12:09:47;29.70;;;5.82;;
17141;SDS011;32805;53.556;9.944;2023-11-19T12:12:21;26.00;;;4.28;;
17141;SDS011;32805;53.556;9.944;2023-11-19T12:15:05;27.63;;;5.68;;
17141;SDS011;32805;53.556;9.944;2023-11-19T12:17:36;20.80;;;5.10;;
17141;SDS011;32805;53.556;9.944;2023-11-19T12:20:06;28.42;;;4.40;;
17141;SDS011;32805;53.556;9.944;2023-11-19T12:22:35;22.42;;;5.78;;
17141;SDS011;32805;53.556;9.944;2023-11-19T12:25:02;19.10;;;4.55;;
17141;SDS011;32805;53.556;9.944;2023-11-19T12:27:31;26.08;;;5.00;;
17141;SDS011;32805;53.556;9.944;2023-11-19T12:30:00;26.17;;;4.60;;
17141;SDS011;32805;53.556;9.944;2023-11-19T12:32:28;20.13;;;4.47;;
17141;SDS011;32805;53.556;9.944;2023-11-19T12:35:05;27.65;;;4.75;;
17141;SDS011;32805;53.556;9.944;2023-11-19T12:37:33;17.35;;;5.40;;
17141;SDS011;32805;53.556;9.944;2023-11-19T12:40:01;21.67;;;3.95;;
17141;SDS011;32805;53.556;9.944;2023-11-19T12:42:36;18.20;;;3.95;;
17141;SDS011;32805;53.556;9.944;2023-11-19T12:45:04;29.35;;;5.13;;
17141;SDS011;32805;53.556;9.944;2023-11-19T12:47:31;22.83;;;4.82;;
17141;SDS011;32805;53.556;9.944;2023-11-19T12:49:59;23.13;;;4.93;;
17141;SDS011;32805;53.556;9.944;2023-11-19T12:52:28;28.17;;;5.20;;
17141;SDS011;32805;53.556;9.944;2023-11-19T12:54:55;23.45;;;5.75;;
17141;SDS011;32805;53.556;9.944;2023-11-19T12:57:35;22.15;;;4.30;;
17141;SDS011;32805;53.556;9.944;2023-11-19T13:00:03;21.38;;;4.32;;
17141;SDS011;32805;53.556;9.944;2023-11-19T13:02:47;23.33;;;5.40;;
17141;SDS011;32805;53.556;9.944;2023-11-19T13:05:24;24.35;;;4.85;;
17141;SDS011;32805;53.556;9.944;2023-11-19T13:08:04;20.20;;;5.78;;
17141;SDS011;32805;53.556;9.944;2023-11-19T13:10:32;26.20;;;6.55;;
17141;SDS011;32805;53.556;9.944;2023-11-19T13:13:03;22.80;;;4.57;;
17141;SDS011;32805;53.556;9.944;2023-11-19T13:15:32;25.63;;;4.35;;
17141;SDS011;32805;53.556;9.944;2023-11-19T13:18:00;26.05;;;4.82;;
17141;SDS011;32805;53.556;9.944;2023-11-19T13:20:27;25.00;;;5.18;;
17141;SDS011;32805;53.556;9.944;2023-11-19T13:22:56;20.30;;;4.75;;
17141;SDS011;32805;53.556;9.944;2023-11-19T13:25:25;25.98;;;5.35;;
17141;SDS011;32805;53.556;9.944;2023-11-19T13:27:52;19.60;;;4.20;;
17141;SDS011;32805;53.556;9.944;2023-11-19T13:30:20;27.33;;;6.70;;
17141;SDS011;32805;53.556;9.944;2023-11-19T13:32:51;20.33;;;4.80;;
17141;SDS011;32805;53.556;9.944;2023-11-19T13:35:21;32.58;;;7.32;;
17141;SDS011;32805;53.556;9.944;2023-11-19T13:37:48;23.30;;;4.88;;
17141;SDS011;32805;53.556;9.944;2023-11-19T13:40:17;22.55;;;6.35;;
17141;SDS011;32805;53.556;9.944;2023-11-19T13:42:47;18.92;;;4.93;;
17141;SDS011;32805;53.556;9.944;2023-11-19T13:45:14;25.67;;;5.00;;
17141;SDS011;32805;53.556;9.944;2023-11-19T13:47:45;19.98;;;4.55;;
17141;SDS011;32805;53.556;9.944;2023-11-19T13:50:13;21.70;;;4.25;;
17141;SDS011;32805;53.556;9.944;2023-11-19T13:52:41;23.48;;;5.53;;
17141;SDS011;32805;53.556;9.944;2023-11-19T13:55:09;29.20;;;6.45;;
17141;SDS011;32805;53.556;9.944;2023-11-19T13:57:37;23.63;;;5.03;;
17141;SDS011;32805;53.556;9.944;2023-11-19T14:00:07;18.13;;;4.45;;
17141;SDS011;32805;53.556;9.944;2023-11-19T14:02:38;20.00;;;3.63;;
17141;SDS011;32805;53.556;9.944;2023-11-19T14:05:06;24.13;;;4.25;;
17141;SDS011;32805;53.556;9.944;2023-11-19T14:07:33;21.67;;;4.63;;
17141;SDS011;32805;53.556;9.944;2023-11-19T14:10:01;23.52;;;5.07;;
17141;SDS011;32805;53.556;9.944;2023-11-19T14:12:29;22.50;;;4.28;;
17141;SDS011;32805;53.556;9.944;2023-11-19T14:14:56;22.23;;;5.22;;
17141;SDS011;32805;53.556;9.944;2023-11-19T14:17:25;17.88;;;5.10;;
17141;SDS011;32805;53.556;9.944;2023-11-19T14:19:53;27.02;;;5.13;;
17141;SDS011;32805;53.556;9.944;2023-11-19T14:22:20;25.25;;;5.78;;
17141;SDS011;32805;53.556;9.944;2023-11-19T14:24:48;19.35;;;4.38;;
17141;SDS011;32805;53.556;9.944;2023-11-19T14:27:15;21.17;;;4.30;;
17141;SDS011;32805;53.556;9.944;2023-11-19T14:29:43;19.63;;;4.57;;
17141;SDS011;32805;53.556;9.944;2023-11-19T14:32:11;20.98;;;4.57;;
17141;SDS011;32805;53.556;9.944;2023-11-19T14:34:40;22.27;;;5.43;;
17141;SDS011;32805;53.556;9.944;2023-11-19T14:37:08;24.10;;;4.35;;
17141;SDS011;32805;53.556;9.944;2023-11-19T14:39:36;26.48;;;4.53;;
17141;SDS011;32805;53.556;9.944;2023-11-19T14:42:03;23.95;;;4.68;;
17141;SDS011;32805;53.556;9.944;2023-11-19T14:44:31;22.58;;;5.88;;
17141;SDS011;32805;53.556;9.944;2023-11-19T14:46:59;21.67;;;4.75;;